sensor_id;sensor_type;location;lat;lon;timestamp;P1;P2;P0
63662;PMS5003;49815;51.618;0.336;2022-12-07T00:01:29;27;19;
63662;PMS5003;49815;51.618;0.336;2022-12-07T00:03:55;21;19;
63662;PMS5003;49815;51.618;0.336;2022-12-07T00:06:20;26;21;
63662;PMS5003;49815;51.618;0.336;2022-12-07T00:08:46;26;19;
63662;PMS5003;49815;51.618;0.336;2022-12-07T00:11:11;27;27;
63662;PMS5003;49815;51.618;0.336;2022-12-07T00:13:37;28;27;
63662;PMS5003;49815;51.618;0.336;2022-12-07T00:16:02;33;24;
63662;PMS5003;49815;51.618;0.336;2022-12-07T00:18:27;32;27;
63662;PMS5003;49815;51.618;0.336;2022-12-07T00:20:52;20;19;
63662;PMS5003;49815;51.618;0.336;2022-12-07T00:23:18;22;20;
63662;PMS5003;49815;51.618;0.336;2022-12-07T00:25:44;26;25;
63662;PMS5003;49815;51.618;0.336;2022-12-07T00:28:09;23;20;
63662;PMS5003;49815;51.618;0.336;2022-12-07T00:30:34;29;25;
63662;PMS5003;49815;51.618;0.336;2022-12-07T00:32:59;24;21;
63662;PMS5003;49815;51.618;0.336;2022-12-07T00:35:25;31;26;
63662;PMS5003;49815;51.618;0.336;2022-12-07T00:37:50;26;26;
63662;PMS5003;49815;51.618;0.336;2022-12-07T00:40:15;26;24;
63662;PMS5003;49815;51.618;0.336;2022-12-07T00:42:41;19;19;
63662;PMS5003;49815;51.618;0.336;2022-12-07T00:45:07;24;20;
63662;PMS5003;49815;51.618;0.336;2022-12-07T00:47:32;25;20;
63662;PMS5003;49815;51.618;0.336;2022-12-07T00:49:58;28;27;
63662;PMS5003;49815;51.618;0.336;2022-12-07T00:52:22;30;25;
63662;PMS5003;49815;51.618;0.336;2022-12-07T00:54:48;20;20;
63662;PMS5003;49815;51.618;0.336;2022-12-07T00:57:13;26;20;
63662;PMS5003;49815;51.618;0.336;2022-12-07T00:59:38;27;26;
63662;PMS5003;49815;51.618;0.336;2022-12-07T01:02:04;26;22;
63662;PMS5003;49815;51.618;0.336;2022-12-07T01:04:29;26;26;
63662;PMS5003;49815;51.618;0.336;2022-12-07T01:06:55;22;20;
63662;PMS5003;49815;51.618;0.336;2022-12-07T01:09:21;33;26;
63662;PMS5003;49815;51.618;0.336;2022-12-07T01:11:46;25;20;
63662;PMS5003;49815;51.618;0.336;2022-12-07T01:14:11;21;18;
63662;PMS5003;49815;51.618;0.336;2022-12-07T01:16:38;16;14;
63662;PMS5003;49815;51.618;0.336;2022-12-07T01:19:02;28;22;
63662;PMS5003;49815;51.618;0.336;2022-12-07T01:21:29;18;15;
63662;PMS5003;49815;51.618;0.336;2022-12-07T01:23:53;25;21;
63662;PMS5003;49815;51.618;0.336;2022-12-07T01:26:19;19;19;
63662;PMS5003;49815;51.618;0.336;2022-12-07T01:28:44;20;19;
63662;PMS5003;49815;51.618;0.336;2022-12-07T01:31:11;25;19;
63662;PMS5003;49815;51.618;0.336;2022-12-07T01:33:35;24;21;
63662;PMS5003;49815;51.618;0.336;2022-12-07T01:36:01;25;25;
63662;PMS5003;49815;51.618;0.336;2022-12-07T01:38:26;20;20;
63662;PMS5003;49815;51.618;0.336;2022-12-07T01:40:54;22;19;
63662;PMS5003;49815;51.618;0.336;2022-12-07T01:43:23;26;22;
63662;PMS5003;49815;51.618;0.336;2022-12-07T01:45:41;19;19;
63662;PMS5003;49815;51.618;0.336;2022-12-07T01:48:07;21;17;
63662;PMS5003;49815;51.618;0.336;2022-12-07T01:50:32;19;16;
63662;PMS5003;49815;51.618;0.336;2022-12-07T01:52:57;27;21;
63662;PMS5003;49815;51.618;0.336;2022-12-07T01:55:23;20;20;
63662;PMS5003;49815;51.618;0.336;2022-12-07T01:57:50;21;20;
63662;PMS5003;49815;51.618;0.336;2022-12-07T02:00:14;22;21;
63662;PMS5003;49815;51.618;0.336;2022-12-07T02:02:41;21;20;
63662;PMS5003;49815;51.618;0.336;2022-12-07T02:05:05;24;21;
63662;PMS5003;49815;51.618;0.336;2022-12-07T02:07:30;20;19;
63662;PMS5003;49815;51.618;0.336;2022-12-07T02:09:56;26;25;
63662;PMS5003;49815;51.618;0.336;2022-12-07T02:12:21;24;21;
63662;PMS5003;49815;51.618;0.336;2022-12-07T02:14:47;24;22;
63662;PMS5003;49815;51.618;0.336;2022-12-07T02:17:14;21;20;
63662;PMS5003;49815;51.618;0.336;2022-12-07T02:22:07;21;21;
63662;PMS5003;49815;51.618;0.336;2022-12-07T02:24:36;23;23;
63662;PMS5003;49815;51.618;0.336;2022-12-07T02:26:57;20;20;
63662;PMS5003;49815;51.618;0.336;2022-12-07T02:29:20;19;19;
63662;PMS5003;49815;51.618;0.336;2022-12-07T02:31:45;24;22;
63662;PMS5003;49815;51.618;0.336;2022-12-07T02:34:11;24;21;
63662;PMS5003;49815;51.618;0.336;2022-12-07T02:36:37;27;21;
63662;PMS5003;49815;51.618;0.336;2022-12-07T02:39:01;25;20;
63662;PMS5003;49815;51.618;0.336;2022-12-07T02:41:25;26;24;
63662;PMS5003;49815;51.618;0.336;2022-12-07T02:43:52;30;22;
63662;PMS5003;49815;51.618;0.336;2022-12-07T02:46:17;30;24;
63662;PMS5003;49815;51.618;0.336;2022-12-07T02:48:41;21;19;
63662;PMS5003;49815;51.618;0.336;2022-12-07T02:51:06;27;22;
63662;PMS5003;49815;51.618;0.336;2022-12-07T02:53:32;26;22;
63662;PMS5003;49815;51.618;0.336;2022-12-07T02:55:58;25;19;
63662;PMS5003;49815;51.618;0.336;2022-12-07T02:58:24;26;25;
63662;PMS5003;49815;51.618;0.336;2022-12-07T03:00:50;27;22;
63662;PMS5003;49815;51.618;0.336;2022-12-07T03:03:14;22;22;
63662;PMS5003;49815;51.618;0.336;2022-12-07T03:05:44;22;22;
63662;PMS5003;49815;51.618;0.336;2022-12-07T03:08:06;22;17;
63662;PMS5003;49815;51.618;0.336;2022-12-07T03:10:33;21;20;
63662;PMS5003;49815;51.618;0.336;2022-12-07T03:12:58;21;20;
63662;PMS5003;49815;51.618;0.336;2022-12-07T03:15:22;21;19;
63662;PMS5003;49815;51.618;0.336;2022-12-07T03:17:47;20;19;
63662;PMS5003;49815;51.618;0.336;2022-12-07T03:20:13;18;18;
63662;PMS5003;49815;51.618;0.336;2022-12-07T03:22:38;30;26;
63662;PMS5003;49815;51.618;0.336;2022-12-07T03:25:04;21;21;
63662;PMS5003;49815;51.618;0.336;2022-12-07T03:27:30;21;20;
63662;PMS5003;49815;51.618;0.336;2022-12-07T03:29:55;16;16;
63662;PMS5003;49815;51.618;0.336;2022-12-07T03:32:20;22;21;
63662;PMS5003;49815;51.618;0.336;2022-12-07T03:34:46;24;20;
63662;PMS5003;49815;51.618;0.336;2022-12-07T03:37:12;22;17;
63662;PMS5003;49815;51.618;0.336;2022-12-07T03:39:36;20;16;
63662;PMS5003;49815;51.618;0.336;2022-12-07T03:42:01;20;20;
63662;PMS5003;49815;51.618;0.336;2022-12-07T03:44:26;37;32;
63662;PMS5003;49815;51.618;0.336;2022-12-07T03:46:53;20;18;
63662;PMS5003;49815;51.618;0.336;2022-12-07T03:49:18;30;25;
63662;PMS5003;49815;51.618;0.336;2022-12-07T03:51:44;20;15;
63662;PMS5003;49815;51.618;0.336;2022-12-07T03:54:10;15;15;
63662;PMS5003;49815;51.618;0.336;2022-12-07T03:56:34;18;16;
63662;PMS5003;49815;51.618;0.336;2022-12-07T03:58:59;16;13;
63662;PMS5003;49815;51.618;0.336;2022-12-07T04:01:25;19;16;
63662;PMS5003;49815;51.618;0.336;2022-12-07T04:03:50;20;18;
63662;PMS5003;49815;51.618;0.336;2022-12-07T04:06:15;16;16;
63662;PMS5003;49815;51.618;0.336;2022-12-07T04:08:40;19;18;
63662;PMS5003;49815;51.618;0.336;2022-12-07T04:11:05;21;18;
63662;PMS5003;49815;51.618;0.336;2022-12-07T04:13:31;22;18;
63662;PMS5003;49815;51.618;0.336;2022-12-07T04:15:56;22;20;
63662;PMS5003;49815;51.618;0.336;2022-12-07T04:18:22;26;23;
63662;PMS5003;49815;51.618;0.336;2022-12-07T04:20:47;27;26;
63662;PMS5003;49815;51.618;0.336;2022-12-07T04:23:12;16;14;
63662;PMS5003;49815;51.618;0.336;2022-12-07T04:25:39;28;25;
63662;PMS5003;49815;51.618;0.336;2022-12-07T04:28:04;22;22;
63662;PMS5003;49815;51.618;0.336;2022-12-07T04:30:29;21;18;
63662;PMS5003;49815;51.618;0.336;2022-12-07T04:32:55;15;15;
63662;PMS5003;49815;51.618;0.336;2022-12-07T04:35:20;24;16;
63662;PMS5003;49815;51.618;0.336;2022-12-07T04:37:46;16;14;
63662;PMS5003;49815;51.618;0.336;2022-12-07T04:40:12;24;19;
63662;PMS5003;49815;51.618;0.336;2022-12-07T04:42:37;21;18;
63662;PMS5003;49815;51.618;0.336;2022-12-07T04:45:03;21;20;
63662;PMS5003;49815;51.618;0.336;2022-12-07T04:47:29;21;19;
63662;PMS5003;49815;51.618;0.336;2022-12-07T04:49:54;18;15;
63662;PMS5003;49815;51.618;0.336;2022-12-07T04:52:20;21;19;
63662;PMS5003;49815;51.618;0.336;2022-12-07T04:54:45;22;20;
63662;PMS5003;49815;51.618;0.336;2022-12-07T04:57:10;22;21;
63662;PMS5003;49815;51.618;0.336;2022-12-07T04:59:36;24;20;
63662;PMS5003;49815;51.618;0.336;2022-12-07T05:02:01;24;20;
63662;PMS5003;49815;51.618;0.336;2022-12-07T05:04:27;27;24;
63662;PMS5003;49815;51.618;0.336;2022-12-07T05:06:52;21;20;
63662;PMS5003;49815;51.618;0.336;2022-12-07T05:09:17;26;24;
63662;PMS5003;49815;51.618;0.336;2022-12-07T05:11:42;27;22;
63662;PMS5003;49815;51.618;0.336;2022-12-07T05:14:10;23;18;
63662;PMS5003;49815;51.618;0.336;2022-12-07T05:16:33;21;19;
63662;PMS5003;49815;51.618;0.336;2022-12-07T05:18:58;22;22;
63662;PMS5003;49815;51.618;0.336;2022-12-07T05:21:23;31;19;
63662;PMS5003;49815;51.618;0.336;2022-12-07T05:23:49;20;18;
63662;PMS5003;49815;51.618;0.336;2022-12-07T05:26:15;21;18;
63662;PMS5003;49815;51.618;0.336;2022-12-07T05:28:40;26;25;
63662;PMS5003;49815;51.618;0.336;2022-12-07T05:31:05;18;18;
63662;PMS5003;49815;51.618;0.336;2022-12-07T05:33:31;29;21;
63662;PMS5003;49815;51.618;0.336;2022-12-07T05:35:56;25;20;
63662;PMS5003;49815;51.618;0.336;2022-12-07T05:38:22;23;19;
63662;PMS5003;49815;51.618;0.336;2022-12-07T05:40:47;22;22;
63662;PMS5003;49815;51.618;0.336;2022-12-07T05:43:13;19;18;
63662;PMS5003;49815;51.618;0.336;2022-12-07T05:45:39;19;19;
63662;PMS5003;49815;51.618;0.336;2022-12-07T05:48:04;30;27;
63662;PMS5003;49815;51.618;0.336;2022-12-07T05:50:29;25;21;
63662;PMS5003;49815;51.618;0.336;2022-12-07T05:52:54;22;22;
63662;PMS5003;49815;51.618;0.336;2022-12-07T05:55:20;18;16;
63662;PMS5003;49815;51.618;0.336;2022-12-07T05:57:45;18;15;
63662;PMS5003;49815;51.618;0.336;2022-12-07T06:00:11;21;20;
63662;PMS5003;49815;51.618;0.336;2022-12-07T06:02:36;23;20;
63662;PMS5003;49815;51.618;0.336;2022-12-07T06:05:02;21;20;
63662;PMS5003;49815;51.618;0.336;2022-12-07T06:07:27;19;17;
63662;PMS5003;49815;51.618;0.336;2022-12-07T06:09:53;14;13;
63662;PMS5003;49815;51.618;0.336;2022-12-07T06:12:18;29;21;
63662;PMS5003;49815;51.618;0.336;2022-12-07T06:14:43;27;20;
63662;PMS5003;49815;51.618;0.336;2022-12-07T06:17:08;26;24;
63662;PMS5003;49815;51.618;0.336;2022-12-07T06:19:33;26;24;
63662;PMS5003;49815;51.618;0.336;2022-12-07T06:21:59;30;20;
63662;PMS5003;49815;51.618;0.336;2022-12-07T06:24:24;20;20;
63662;PMS5003;49815;51.618;0.336;2022-12-07T06:26:49;27;20;
63662;PMS5003;49815;51.618;0.336;2022-12-07T06:29:16;20;15;
63662;PMS5003;49815;51.618;0.336;2022-12-07T06:31:40;24;23;
63662;PMS5003;49815;51.618;0.336;2022-12-07T06:34:07;24;24;
63662;PMS5003;49815;51.618;0.336;2022-12-07T06:36:31;26;24;
63662;PMS5003;49815;51.618;0.336;2022-12-07T06:38:57;25;19;
63662;PMS5003;49815;51.618;0.336;2022-12-07T06:41:22;26;23;
63662;PMS5003;49815;51.618;0.336;2022-12-07T06:43:48;24;21;
63662;PMS5003;49815;51.618;0.336;2022-12-07T06:46:13;29;25;
63662;PMS5003;49815;51.618;0.336;2022-12-07T06:48:38;21;18;
63662;PMS5003;49815;51.618;0.336;2022-12-07T06:51:04;17;17;
63662;PMS5003;49815;51.618;0.336;2022-12-07T06:53:29;23;21;
63662;PMS5003;49815;51.618;0.336;2022-12-07T06:55:55;18;17;
63662;PMS5003;49815;51.618;0.336;2022-12-07T06:58:21;19;18;
63662;PMS5003;49815;51.618;0.336;2022-12-07T07:00:47;14;14;
63662;PMS5003;49815;51.618;0.336;2022-12-07T07:03:12;20;14;
63662;PMS5003;49815;51.618;0.336;2022-12-07T07:05:37;20;16;
63662;PMS5003;49815;51.618;0.336;2022-12-07T07:08:03;14;14;
63662;PMS5003;49815;51.618;0.336;2022-12-07T07:10:28;22;18;
63662;PMS5003;49815;51.618;0.336;2022-12-07T07:12:54;25;21;
63662;PMS5003;49815;51.618;0.336;2022-12-07T07:15:19;25;21;
63662;PMS5003;49815;51.618;0.336;2022-12-07T07:17:46;24;20;
63662;PMS5003;49815;51.618;0.336;2022-12-07T07:20:11;20;20;
63662;PMS5003;49815;51.618;0.336;2022-12-07T07:22:36;21;19;
63662;PMS5003;49815;51.618;0.336;2022-12-07T07:25:03;18;18;
63662;PMS5003;49815;51.618;0.336;2022-12-07T07:27:27;17;17;
63662;PMS5003;49815;51.618;0.336;2022-12-07T07:29:53;18;18;
63662;PMS5003;49815;51.618;0.336;2022-12-07T07:32:18;22;18;
63662;PMS5003;49815;51.618;0.336;2022-12-07T07:34:43;18;15;
63662;PMS5003;49815;51.618;0.336;2022-12-07T07:37:09;19;14;
63662;PMS5003;49815;51.618;0.336;2022-12-07T07:39:34;20;15;
63662;PMS5003;49815;51.618;0.336;2022-12-07T07:42:00;15;14;
63662;PMS5003;49815;51.618;0.336;2022-12-07T07:44:26;17;15;
63662;PMS5003;49815;51.618;0.336;2022-12-07T07:46:51;14;13;
63662;PMS5003;49815;51.618;0.336;2022-12-07T07:49:17;14;14;
63662;PMS5003;49815;51.618;0.336;2022-12-07T07:51:42;18;16;
63662;PMS5003;49815;51.618;0.336;2022-12-07T07:54:08;19;16;
63662;PMS5003;49815;51.618;0.336;2022-12-07T07:56:34;18;16;
63662;PMS5003;49815;51.618;0.336;2022-12-07T07:59:00;21;20;
63662;PMS5003;49815;51.618;0.336;2022-12-07T08:01:25;23;21;
63662;PMS5003;49815;51.618;0.336;2022-12-07T08:03:51;25;25;
63662;PMS5003;49815;51.618;0.336;2022-12-07T08:06:17;21;16;
63662;PMS5003;49815;51.618;0.336;2022-12-07T08:08:42;23;19;
63662;PMS5003;49815;51.618;0.336;2022-12-07T08:11:08;15;15;
63662;PMS5003;49815;51.618;0.336;2022-12-07T08:13:33;22;20;
63662;PMS5003;49815;51.618;0.336;2022-12-07T08:16:01;20;20;
63662;PMS5003;49815;51.618;0.336;2022-12-07T08:18:25;25;19;
63662;PMS5003;49815;51.618;0.336;2022-12-07T08:20:50;15;14;
63662;PMS5003;49815;51.618;0.336;2022-12-07T08:23:16;29;25;
63662;PMS5003;49815;51.618;0.336;2022-12-07T08:25:41;16;16;
63662;PMS5003;49815;51.618;0.336;2022-12-07T08:28:07;20;18;
63662;PMS5003;49815;51.618;0.336;2022-12-07T08:30:32;15;14;
63662;PMS5003;49815;51.618;0.336;2022-12-07T08:32:58;24;24;
63662;PMS5003;49815;51.618;0.336;2022-12-07T08:35:23;16;16;
63662;PMS5003;49815;51.618;0.336;2022-12-07T08:37:48;19;16;
63662;PMS5003;49815;51.618;0.336;2022-12-07T08:40:14;18;16;
63662;PMS5003;49815;51.618;0.336;2022-12-07T08:42:39;19;17;
63662;PMS5003;49815;51.618;0.336;2022-12-07T08:45:05;21;20;
63662;PMS5003;49815;51.618;0.336;2022-12-07T08:47:30;14;14;
63662;PMS5003;49815;51.618;0.336;2022-12-07T08:49:56;18;15;
63662;PMS5003;49815;51.618;0.336;2022-12-07T08:52:22;16;15;
63662;PMS5003;49815;51.618;0.336;2022-12-07T08:54:48;15;15;
63662;PMS5003;49815;51.618;0.336;2022-12-07T08:57:13;19;16;
63662;PMS5003;49815;51.618;0.336;2022-12-07T08:59:39;16;16;
63662;PMS5003;49815;51.618;0.336;2022-12-07T09:02:05;18;18;
63662;PMS5003;49815;51.618;0.336;2022-12-07T09:04:29;21;15;
63662;PMS5003;49815;51.618;0.336;2022-12-07T09:06:55;16;14;
63662;PMS5003;49815;51.618;0.336;2022-12-07T09:09:20;12;12;
63662;PMS5003;49815;51.618;0.336;2022-12-07T09:11:46;15;13;
63662;PMS5003;49815;51.618;0.336;2022-12-07T09:14:11;15;9;
63662;PMS5003;49815;51.618;0.336;2022-12-07T09:16:37;15;13;
63662;PMS5003;49815;51.618;0.336;2022-12-07T09:19:02;15;14;
63662;PMS5003;49815;51.618;0.336;2022-12-07T09:21:28;22;22;
63662;PMS5003;49815;51.618;0.336;2022-12-07T09:23:54;14;14;
63662;PMS5003;49815;51.618;0.336;2022-12-07T09:28:44;14;10;
63662;PMS5003;49815;51.618;0.336;2022-12-07T09:31:10;14;14;
63662;PMS5003;49815;51.618;0.336;2022-12-07T09:33:36;14;12;
63662;PMS5003;49815;51.618;0.336;2022-12-07T09:36:01;14;14;
63662;PMS5003;49815;51.618;0.336;2022-12-07T09:40:53;15;13;
63662;PMS5003;49815;51.618;0.336;2022-12-07T09:43:18;15;14;
63662;PMS5003;49815;51.618;0.336;2022-12-07T09:48:11;13;10;
63662;PMS5003;49815;51.618;0.336;2022-12-07T09:50:34;14;13;
63662;PMS5003;49815;51.618;0.336;2022-12-07T09:53:03;19;15;
63662;PMS5003;49815;51.618;0.336;2022-12-07T09:57:52;15;13;
63662;PMS5003;49815;51.618;0.336;2022-12-07T10:02:43;26;21;
63662;PMS5003;49815;51.618;0.336;2022-12-07T10:05:10;15;14;
63662;PMS5003;49815;51.618;0.336;2022-12-07T10:09:59;23;18;
63662;PMS5003;49815;51.618;0.336;2022-12-07T10:14:54;15;11;
63662;PMS5003;49815;51.618;0.336;2022-12-07T10:19:41;10;10;
63662;PMS5003;49815;51.618;0.336;2022-12-07T10:22:09;13;13;
63662;PMS5003;49815;51.618;0.336;2022-12-07T10:24:32;15;9;
63662;PMS5003;49815;51.618;0.336;2022-12-07T10:26:58;15;11;
63662;PMS5003;49815;51.618;0.336;2022-12-07T10:31:49;11;11;
63662;PMS5003;49815;51.618;0.336;2022-12-07T10:34:20;15;10;
63662;PMS5003;49815;51.618;0.336;2022-12-07T10:39:11;12;12;
63662;PMS5003;49815;51.618;0.336;2022-12-07T10:41:30;13;13;
63662;PMS5003;49815;51.618;0.336;2022-12-07T10:43:55;15;10;
63662;PMS5003;49815;51.618;0.336;2022-12-07T10:51:12;15;15;
63662;PMS5003;49815;51.618;0.336;2022-12-07T10:53:42;19;15;
63662;PMS5003;49815;51.618;0.336;2022-12-07T10:56:08;34;28;
63662;PMS5003;49815;51.618;0.336;2022-12-07T10:58:36;13;12;
63662;PMS5003;49815;51.618;0.336;2022-12-07T11:00:55;20;14;
63662;PMS5003;49815;51.618;0.336;2022-12-07T11:05:46;17;16;
63662;PMS5003;49815;51.618;0.336;2022-12-07T11:08:13;20;14;
63662;PMS5003;49815;51.618;0.336;2022-12-07T11:10:40;20;20;
63662;PMS5003;49815;51.618;0.336;2022-12-07T11:20:26;12;11;
63662;PMS5003;49815;51.618;0.336;2022-12-07T11:25:15;10;10;
63662;PMS5003;49815;51.618;0.336;2022-12-07T11:32:32;14;11;
63662;PMS5003;49815;51.618;0.336;2022-12-07T11:34:55;13;13;
63662;PMS5003;49815;51.618;0.336;2022-12-07T11:37:19;15;15;
63662;PMS5003;49815;51.618;0.336;2022-12-07T11:42:09;46;42;
63662;PMS5003;49815;51.618;0.336;2022-12-07T11:44:36;20;20;
63662;PMS5003;49815;51.618;0.336;2022-12-07T11:51:53;27;27;
63662;PMS5003;49815;51.618;0.336;2022-12-07T11:56:42;20;20;
63662;PMS5003;49815;51.618;0.336;2022-12-07T11:59:11;18;16;
63662;PMS5003;49815;51.618;0.336;2022-12-07T12:01:38;14;12;
63662;PMS5003;49815;51.618;0.336;2022-12-07T12:04:01;14;11;
63662;PMS5003;49815;51.618;0.336;2022-12-07T12:08:53;11;11;
63662;PMS5003;49815;51.618;0.336;2022-12-07T12:11:19;10;9;
63662;PMS5003;49815;51.618;0.336;2022-12-07T12:16:12;11;10;
63662;PMS5003;49815;51.618;0.336;2022-12-07T12:18:37;10;10;
63662;PMS5003;49815;51.618;0.336;2022-12-07T12:25:50;10;10;
63662;PMS5003;49815;51.618;0.336;2022-12-07T12:28:18;11;10;
63662;PMS5003;49815;51.618;0.336;2022-12-07T12:30:40;10;7;
63662;PMS5003;49815;51.618;0.336;2022-12-07T12:33:12;9;9;
63662;PMS5003;49815;51.618;0.336;2022-12-07T12:35:32;9;8;
63662;PMS5003;49815;51.618;0.336;2022-12-07T12:42:49;11;11;
63662;PMS5003;49815;51.618;0.336;2022-12-07T12:45:19;10;8;
63662;PMS5003;49815;51.618;0.336;2022-12-07T12:50:14;11;11;
63662;PMS5003;49815;51.618;0.336;2022-12-07T12:57:24;14;9;
63662;PMS5003;49815;51.618;0.336;2022-12-07T13:07:09;11;11;
63662;PMS5003;49815;51.618;0.336;2022-12-07T13:11:56;11;9;
63662;PMS5003;49815;51.618;0.336;2022-12-07T13:16:46;10;10;
63662;PMS5003;49815;51.618;0.336;2022-12-07T13:33:46;10;10;
63662;PMS5003;49815;51.618;0.336;2022-12-07T13:43:27;15;11;
63662;PMS5003;49815;51.618;0.336;2022-12-07T13:45:56;15;13;
63662;PMS5003;49815;51.618;0.336;2022-12-07T13:58:00;11;11;
63662;PMS5003;49815;51.618;0.336;2022-12-07T14:00:26;15;13;
63662;PMS5003;49815;51.618;0.336;2022-12-07T14:02:55;15;15;
63662;PMS5003;49815;51.618;0.336;2022-12-07T14:12:34;32;28;
63662;PMS5003;49815;51.618;0.336;2022-12-07T14:14:59;29;26;
63662;PMS5003;49815;51.618;0.336;2022-12-07T14:24:41;28;24;
63662;PMS5003;49815;51.618;0.336;2022-12-07T14:27:15;22;22;
63662;PMS5003;49815;51.618;0.336;2022-12-07T14:34:22;23;23;
63662;PMS5003;49815;51.618;0.336;2022-12-07T14:44:08;12;10;
63662;PMS5003;49815;51.618;0.336;2022-12-07T14:46:30;14;12;
63662;PMS5003;49815;51.618;0.336;2022-12-07T14:51:22;23;21;
63662;PMS5003;49815;51.618;0.336;2022-12-07T14:53:48;25;22;
63662;PMS5003;49815;51.618;0.336;2022-12-07T14:56:12;25;22;
63662;PMS5003;49815;51.618;0.336;2022-12-07T14:58:37;19;18;
63662;PMS5003;49815;51.618;0.336;2022-12-07T15:03:28;25;20;
63662;PMS5003;49815;51.618;0.336;2022-12-07T15:05:53;18;18;
63662;PMS5003;49815;51.618;0.336;2022-12-07T15:15:34;16;14;
63662;PMS5003;49815;51.618;0.336;2022-12-07T15:18:00;14;12;
63662;PMS5003;49815;51.618;0.336;2022-12-07T15:20:26;17;14;
63662;PMS5003;49815;51.618;0.336;2022-12-07T15:25:17;21;20;
63662;PMS5003;49815;51.618;0.336;2022-12-07T15:32:34;22;21;
63662;PMS5003;49815;51.618;0.336;2022-12-07T15:34:59;27;27;
63662;PMS5003;49815;51.618;0.336;2022-12-07T15:37:25;24;24;
63662;PMS5003;49815;51.618;0.336;2022-12-07T15:39:51;29;24;
63662;PMS5003;49815;51.618;0.336;2022-12-07T15:47:08;16;16;
63662;PMS5003;49815;51.618;0.336;2022-12-07T15:51:58;16;16;
63662;PMS5003;49815;51.618;0.336;2022-12-07T15:54:24;18;13;
63662;PMS5003;49815;51.618;0.336;2022-12-07T15:56:49;15;14;
63662;PMS5003;49815;51.618;0.336;2022-12-07T15:59:14;15;15;
63662;PMS5003;49815;51.618;0.336;2022-12-07T16:01:39;18;14;
63662;PMS5003;49815;51.618;0.336;2022-12-07T16:04:05;19;18;
63662;PMS5003;49815;51.618;0.336;2022-12-07T16:06:30;16;16;
63662;PMS5003;49815;51.618;0.336;2022-12-07T16:11:21;18;15;
63662;PMS5003;49815;51.618;0.336;2022-12-07T16:16:13;24;20;
63662;PMS5003;49815;51.618;0.336;2022-12-07T16:18:38;21;19;
63662;PMS5003;49815;51.618;0.336;2022-12-07T16:23:29;20;20;
63662;PMS5003;49815;51.618;0.336;2022-12-07T16:33:11;21;20;
63662;PMS5003;49815;51.618;0.336;2022-12-07T16:40:29;20;18;
63662;PMS5003;49815;51.618;0.336;2022-12-07T16:42:54;20;18;
63662;PMS5003;49815;51.618;0.336;2022-12-07T16:45:19;24;21;
63662;PMS5003;49815;51.618;0.336;2022-12-07T16:47:45;28;20;
63662;PMS5003;49815;51.618;0.336;2022-12-07T16:55:02;18;18;
63662;PMS5003;49815;51.618;0.336;2022-12-07T16:57:26;15;15;
63662;PMS5003;49815;51.618;0.336;2022-12-07T16:59:52;17;14;
63662;PMS5003;49815;51.618;0.336;2022-12-07T17:04:43;18;17;
63662;PMS5003;49815;51.618;0.336;2022-12-07T17:09:35;24;23;
63662;PMS5003;49815;51.618;0.336;2022-12-07T17:12:00;29;26;
63662;PMS5003;49815;51.618;0.336;2022-12-07T17:14:26;31;30;
63662;PMS5003;49815;51.618;0.336;2022-12-07T17:16:51;32;28;
63662;PMS5003;49815;51.618;0.336;2022-12-07T17:24:08;24;24;
63662;PMS5003;49815;51.618;0.336;2022-12-07T17:33:48;28;27;
63662;PMS5003;49815;51.618;0.336;2022-12-07T17:36:15;22;19;
63662;PMS5003;49815;51.618;0.336;2022-12-07T17:38:39;24;22;
63662;PMS5003;49815;51.618;0.336;2022-12-07T17:43:29;28;24;
63662;PMS5003;49815;51.618;0.336;2022-12-07T17:48:21;30;25;
63662;PMS5003;49815;51.618;0.336;2022-12-07T17:50:46;24;23;
63662;PMS5003;49815;51.618;0.336;2022-12-07T17:53:12;28;23;
63662;PMS5003;49815;51.618;0.336;2022-12-07T17:58:04;27;25;
63662;PMS5003;49815;51.618;0.336;2022-12-07T18:02:55;26;24;
63662;PMS5003;49815;51.618;0.336;2022-12-07T18:07:47;23;22;
63662;PMS5003;49815;51.618;0.336;2022-12-07T18:12:38;30;24;
63662;PMS5003;49815;51.618;0.336;2022-12-07T18:15:04;30;28;
63662;PMS5003;49815;51.618;0.336;2022-12-07T18:17:29;32;29;
63662;PMS5003;49815;51.618;0.336;2022-12-07T18:22:19;30;30;
63662;PMS5003;49815;51.618;0.336;2022-12-07T18:27:10;26;25;
63662;PMS5003;49815;51.618;0.336;2022-12-07T18:34:25;30;27;
63662;PMS5003;49815;51.618;0.336;2022-12-07T18:36:51;36;29;
63662;PMS5003;49815;51.618;0.336;2022-12-07T18:41:42;29;29;
63662;PMS5003;49815;51.618;0.336;2022-12-07T18:44:08;31;30;
63662;PMS5003;49815;51.618;0.336;2022-12-07T18:46:34;34;27;
63662;PMS5003;49815;51.618;0.336;2022-12-07T18:51:25;33;28;
63662;PMS5003;49815;51.618;0.336;2022-12-07T18:53:50;32;28;
63662;PMS5003;49815;51.618;0.336;2022-12-07T18:56:16;30;27;
63662;PMS5003;49815;51.618;0.336;2022-12-07T18:58:41;30;30;
63662;PMS5003;49815;51.618;0.336;2022-12-07T19:01:07;28;28;
63662;PMS5003;49815;51.618;0.336;2022-12-07T19:03:31;30;28;
63662;PMS5003;49815;51.618;0.336;2022-12-07T19:05:57;29;24;
63662;PMS5003;49815;51.618;0.336;2022-12-07T19:08:22;33;28;
63662;PMS5003;49815;51.618;0.336;2022-12-07T19:13:14;34;29;
63662;PMS5003;49815;51.618;0.336;2022-12-07T19:15:39;38;35;
63662;PMS5003;49815;51.618;0.336;2022-12-07T19:22:57;33;29;
63662;PMS5003;49815;51.618;0.336;2022-12-07T19:27:47;34;30;
63662;PMS5003;49815;51.618;0.336;2022-12-07T19:30:13;33;30;
63662;PMS5003;49815;51.618;0.336;2022-12-07T19:32:38;37;33;
63662;PMS5003;49815;51.618;0.336;2022-12-07T19:35:04;28;28;
63662;PMS5003;49815;51.618;0.336;2022-12-07T19:42:20;33;32;
63662;PMS5003;49815;51.618;0.336;2022-12-07T19:44:45;25;25;
63662;PMS5003;49815;51.618;0.336;2022-12-07T19:47:10;38;35;
63662;PMS5003;49815;51.618;0.336;2022-12-07T19:49:35;32;27;
63662;PMS5003;49815;51.618;0.336;2022-12-07T19:54:28;28;24;
63662;PMS5003;49815;51.618;0.336;2022-12-07T20:01:44;28;24;
63662;PMS5003;49815;51.618;0.336;2022-12-07T20:04:10;30;25;
63662;PMS5003;49815;51.618;0.336;2022-12-07T20:21:06;34;29;
63662;PMS5003;49815;51.618;0.336;2022-12-07T20:40:31;30;27;
63662;PMS5003;49815;51.618;0.336;2022-12-07T20:45:22;33;31;
63662;PMS5003;49815;51.618;0.336;2022-12-07T20:50:13;34;34;
63662;PMS5003;49815;51.618;0.336;2022-12-07T20:52:38;37;32;
63662;PMS5003;49815;51.618;0.336;2022-12-07T20:55:04;39;35;
63662;PMS5003;49815;51.618;0.336;2022-12-07T20:57:29;43;39;
63662;PMS5003;49815;51.618;0.336;2022-12-07T21:02:20;34;31;
63662;PMS5003;49815;51.618;0.336;2022-12-07T21:04:46;37;33;
63662;PMS5003;49815;51.618;0.336;2022-12-07T21:07:11;33;28;
63662;PMS5003;49815;51.618;0.336;2022-12-07T21:09:36;32;29;
63662;PMS5003;49815;51.618;0.336;2022-12-07T21:12:02;37;30;
63662;PMS5003;49815;51.618;0.336;2022-12-07T21:16:54;36;36;